Time,TemperatureF,DewpointF,PressureIn,WindDirection,WindDirectionDegrees,WindSpeedMPH,WindSpeedGustMPH,Humidity,HourlyPrecipIn,Conditions,Clouds,dailyrainin,SoftwareType,DateUTC
2013-08-12 00:02:00,62.2,57.0,29.98,South,184,1.0,2.0,83,0.00,,,0.00,Wunderground v.1.15,2013-08-12 04:02:00,
2013-08-12 00:07:00,62.4,57.2,29.98,SSW,200,2.0,2.0,83,0.00,,,0.00,Wunderground v.1.15,2013-08-12 04:07:00,
2013-08-12 00:12:00,62.5,57.3,29.98,SSW,208,2.0,2.0,83,0.00,,,0.00,Wunderground v.1.15,2013-08-12 04:12:00,
2013-08-12 00:17:00,62.6,57.4,29.98,SSW,207,2.0,2.0,83,0.00,,,0.00,Wunderground v.1.15,2013-08-12 04:17:00,
2013-08-12 00:22:00,62.6,57.4,29.98,SSW,202,2.0,2.0,83,0.00,,,0.00,Wunderground v.1.15,2013-08-12 04:22:00,
2013-08-12 00:27:00,62.5,57.3,29.98,SSW,207,1.0,2.0,83,0.00,,,0.00,Wunderground v.1.15,2013-08-12 04:27:00,
2013-08-12 00:32:00,62.5,57.3,29.98,SSW,205,1.0,2.0,83,0.00,,,0.00,Wunderground v.1.15,2013-08-12 04:32:00,
2013-08-12 00:38:00,62.5,57.3,29.98,South,180,1.0,2.0,83,0.00,,,0.00,Wunderground v.1.15,2013-08-12 04:38:00,
2013-08-12 00:42:00,62.4,57.5,29.98,South,185,1.0,1.0,84,0.00,,,0.00,Wunderground v.1.15,2013-08-12 04:42:00,
2013-08-12 00:47:00,62.3,57.4,29.98,SSW,205,0.0,1.0,84,0.00,,,0.00,Wunderground v.1.15,2013-08-12 04:47:00,
2013-08-12 00:53:00,62.2,57.6,29.98,SSW,199,0.0,0.0,85,0.00,,,0.00,Wunderground v.1.15,2013-08-12 04:53:00,
2013-08-12 01:03:00,61.7,57.5,29.98,SSW,203,0.0,0.0,86,0.00,,,0.00,Wunderground v.1.15,2013-08-12 05:03:00,
2013-08-12 01:12:00,61.3,57.4,29.98,SSW,203,0.0,0.0,87,0.00,,,0.00,Wunderground v.1.15,2013-08-12 05:12:00,
2013-08-12 01:17:00,61.0,57.1,29.98,SSW,203,0.0,0.0,87,0.00,,,0.00,Wunderground v.1.15,2013-08-12 05:17:00,
2013-08-12 01:22:00,60.9,57.3,29.98,SSW,203,0.0,0.0,88,0.00,,,0.00,Wunderground v.1.15,2013-08-12 05:22:00,
2013-08-12 01:27:00,60.7,57.1,29.98,SSW,203,0.0,0.0,88,0.00,,,0.00,Wunderground v.1.15,2013-08-12 05:27:00,
2013-08-12 01:38:00,59.8,56.6,29.98,WSW,254,0.0,1.0,89,0.00,,,0.00,Wunderground v.1.15,2013-08-12 05:38:00,
2013-08-12 01:47:00,59.3,56.1,29.98,West,273,0.0,0.0,89,0.00,,,0.00,Wunderground v.1.15,2013-08-12 05:47:00,
2013-08-12 01:57:00,59.1,55.9,29.98,West,273,0.0,0.0,89,0.00,,,0.00,Wunderground v.1.15,2013-08-12 05:57:00,
2013-08-12 02:07:00,58.6,55.4,29.98,West,273,0.0,0.0,89,0.00,,,0.00,Wunderground v.1.15,2013-08-12 06:07:00,
2013-08-12 02:17:00,58.3,54.8,29.97,West,273,0.0,0.0,88,0.00,,,0.00,Wunderground v.1.15,2013-08-12 06:17:00,
2013-08-12 02:23:00,58.1,54.6,29.97,West,273,0.0,0.0,88,0.00,,,0.00,Wunderground v.1.15,2013-08-12 06:23:00,
2013-08-12 02:33:00,58.0,54.2,29.97,West,264,0.0,0.0,87,0.00,,,0.00,Wunderground v.1.15,2013-08-12 06:33:00,
2013-08-12 02:38:00,58.1,53.9,29.97,West,263,1.0,1.0,86,0.00,,,0.00,Wunderground v.1.15,2013-08-12 06:38:00,
2013-08-12 02:47:00,58.2,55.0,29.97,West,263,0.0,1.0,89,0.00,,,0.00,Wunderground v.1.15,2013-08-12 06:47:00,
2013-08-12 02:52:00,57.4,53.9,29.97,West,266,0.0,0.0,88,0.00,,,0.00,Wunderground v.1.15,2013-08-12 06:52:00,
2013-08-12 03:02:00,57.8,52.0,29.97,West,265,0.0,0.0,81,0.00,,,0.00,Wunderground v.1.15,2013-08-12 07:02:00,
2013-08-12 03:07:00,58.2,53.1,29.97,West,268,0.0,1.0,83,0.00,,,0.00,Wunderground v.1.15,2013-08-12 07:07:00,
2013-08-12 03:12:00,57.6,54.1,29.97,West,269,0.0,0.0,88,0.00,,,0.00,Wunderground v.1.15,2013-08-12 07:12:00,
2013-08-12 03:22:00,57.3,52.5,29.96,West,269,0.0,0.0,84,0.00,,,0.00,Wunderground v.1.15,2013-08-12 07:22:00,
2013-08-12 03:27:00,57.2,52.4,29.96,West,269,0.0,1.0,84,0.00,,,0.00,Wunderground v.1.15,2013-08-12 07:27:00,
2013-08-12 03:37:00,56.5,51.4,29.96,West,273,0.0,1.0,83,0.00,,,0.00,Wunderground v.1.15,2013-08-12 07:37:00,
2013-08-12 03:43:00,56.3,51.5,29.96,West,273,0.0,0.0,84,0.00,,,0.00,Wunderground v.1.15,2013-08-12 07:43:00,
2013-08-12 03:52:00,56.1,50.3,29.96,West,267,1.0,1.0,81,0.00,,,0.00,Wunderground v.1.15,2013-08-12 07:52:00,
2013-08-12 03:57:00,56.0,50.3,29.96,West,279,1.0,1.0,81,0.00,,,0.00,Wunderground v.1.15,2013-08-12 07:57:00,
2013-08-12 04:12:00,55.7,50.0,29.96,West,277,0.0,0.0,81,0.00,,,0.00,Wunderground v.1.15,2013-08-12 08:12:00,
2013-08-12 04:22:00,55.9,50.2,29.96,West,281,0.0,0.0,81,0.00,,,0.00,Wunderground v.1.15,2013-08-12 08:22:00,
2013-08-12 04:27:00,55.7,50.6,29.96,West,281,0.0,0.0,83,0.00,,,0.00,Wunderground v.1.15,2013-08-12 08:27:00,
2013-08-12 04:37:00,55.5,49.8,29.96,West,269,0.0,0.0,81,0.00,,,0.00,Wunderground v.1.15,2013-08-12 08:37:00,
2013-08-12 04:42:00,55.6,49.5,29.96,West,275,0.0,0.0,80,0.00,,,0.00,Wunderground v.1.15,2013-08-12 08:42:00,
2013-08-12 04:48:00,55.3,49.9,29.96,WNW,282,1.0,1.0,82,0.00,,,0.00,Wunderground v.1.15,2013-08-12 08:48:00,
2013-08-12 04:57:00,55.4,48.3,29.96,West,269,1.0,2.0,77,0.00,,,0.00,Wunderground v.1.15,2013-08-12 08:57:00,
2013-08-12 05:02:00,55.5,48.8,29.96,West,272,1.0,4.0,78,0.00,,,0.00,Wunderground v.1.15,2013-08-12 09:02:00,
2013-08-12 05:07:00,55.7,47.9,29.96,West,274,2.0,4.0,75,0.00,,,0.00,Wunderground v.1.15,2013-08-12 09:07:00,
2013-08-12 05:12:00,56.0,48.2,29.96,WNW,286,2.0,2.0,75,0.00,,,0.00,Wunderground v.1.15,2013-08-12 09:12:00,
2013-08-12 05:22:00,56.3,49.5,29.96,WNW,283,0.0,0.0,78,0.00,,,0.00,Wunderground v.1.15,2013-08-12 09:22:00,
2013-08-12 05:32:00,55.9,50.2,29.96,WNW,283,0.0,0.0,81,0.00,,,0.00,Wunderground v.1.15,2013-08-12 09:32:00,
2013-08-12 05:37:00,55.9,49.5,29.96,WNW,283,0.0,0.0,79,0.00,,,0.00,Wunderground v.1.15,2013-08-12 09:37:00,
2013-08-12 05:47:00,55.5,49.4,29.96,West,273,0.0,1.0,80,0.00,,,0.00,Wunderground v.1.15,2013-08-12 09:47:00,
2013-08-12 05:57:00,55.7,47.2,29.96,West,267,1.0,1.0,73,0.00,,,0.00,Wunderground v.1.15,2013-08-12 09:57:00,
2013-08-12 06:03:00,55.7,47.5,29.96,West,266,0.0,0.0,74,0.00,,,0.00,Wunderground v.1.15,2013-08-12 10:03:00,
2013-08-12 06:08:00,55.8,47.3,29.96,West,266,0.0,0.0,73,0.00,,,0.00,Wunderground v.1.15,2013-08-12 10:08:00,
2013-08-12 06:17:00,55.7,47.9,29.96,West,271,0.0,0.0,75,0.00,,,0.00,Wunderground v.1.15,2013-08-12 10:17:00,
2013-08-12 06:23:00,55.9,47.0,29.96,West,271,0.0,0.0,72,0.00,,,0.00,Wunderground v.1.15,2013-08-12 10:23:00,
2013-08-12 06:32:00,56.6,45.0,29.96,West,271,0.0,0.0,65,0.00,,,0.00,Wunderground v.1.15,2013-08-12 10:32:00,
2013-08-12 06:37:00,57.0,46.5,29.96,West,271,0.0,0.0,68,0.00,,,0.00,Wunderground v.1.15,2013-08-12 10:37:00,
2013-08-12 06:42:00,57.6,47.9,29.96,West,271,0.0,0.0,70,0.00,,,0.00,Wunderground v.1.15,2013-08-12 10:42:00,
2013-08-12 06:52:00,59.3,54.5,29.96,West,271,0.0,0.0,84,0.00,,,0.00,Wunderground v.1.15,2013-08-12 10:52:00,
2013-08-12 07:02:00,60.5,57.2,29.96,West,271,0.0,0.0,89,0.00,,,0.00,Wunderground v.1.15,2013-08-12 11:02:00,
2013-08-12 07:07:00,60.9,57.6,29.96,West,271,0.0,0.0,89,0.00,,,0.00,Wunderground v.1.15,2013-08-12 11:07:00,
2013-08-12 07:12:00,61.2,57.9,29.96,West,271,0.0,0.0,89,0.00,,,0.00,Wunderground v.1.15,2013-08-12 11:12:00,
2013-08-12 07:22:00,61.7,58.4,29.96,West,271,0.0,0.0,89,0.00,,,0.00,Wunderground v.1.15,2013-08-12 11:22:00,
2013-08-12 07:27:00,62.2,58.9,29.96,West,271,0.0,0.0,89,0.00,,,0.00,Wunderground v.1.15,2013-08-12 11:27:00,
2013-08-12 07:33:00,62.6,59.0,29.96,ENE,69,0.0,0.0,88,0.00,,,0.00,Wunderground v.1.15,2013-08-12 11:33:00,
2013-08-12 07:38:00,63.0,59.4,29.96,ENE,68,0.0,0.0,88,0.00,,,0.00,Wunderground v.1.15,2013-08-12 11:38:00,
2013-08-12 07:48:00,64.8,61.2,29.97,ENE,69,0.0,0.0,88,0.00,,,0.00,Wunderground v.1.15,2013-08-12 11:48:00,
2013-08-12 07:53:00,66.3,61.7,29.97,ENE,69,0.0,0.0,85,0.00,,,0.00,Wunderground v.1.15,2013-08-12 11:53:00,
2013-08-12 07:58:00,67.3,62.0,29.97,ENE,68,0.0,0.0,83,0.00,,,0.00,Wunderground v.1.15,2013-08-12 11:58:00,
2013-08-12 08:07:00,66.5,61.2,29.97,ENE,68,0.0,0.0,83,0.00,,,0.00,Wunderground v.1.15,2013-08-12 12:07:00,
2013-08-12 08:12:00,66.6,61.6,29.97,ENE,67,0.0,1.0,84,0.00,,,0.00,Wunderground v.1.15,2013-08-12 12:12:00,
2013-08-12 08:17:00,66.0,61.4,29.97,ENE,70,0.0,2.0,85,0.00,,,0.00,Wunderground v.1.15,2013-08-12 12:17:00,
2013-08-12 08:27:00,67.2,62.5,29.96,ENE,68,0.0,1.0,85,0.00,,,0.00,Wunderground v.1.15,2013-08-12 12:27:00,
2013-08-12 08:37:00,66.9,62.6,29.96,ENE,78,0.0,0.0,86,0.00,,,0.00,Wunderground v.1.15,2013-08-12 12:37:00,
2013-08-12 08:42:00,68.1,62.4,29.96,SE,134,0.0,0.0,82,0.00,,,0.00,Wunderground v.1.15,2013-08-12 12:42:00,
2013-08-12 08:52:00,68.8,62.4,29.96,ESE,113,3.0,3.0,80,0.00,,,0.00,Wunderground v.1.15,2013-08-12 12:52:00,
2013-08-12 08:57:00,68.9,62.5,29.96,SE,131,4.0,4.0,80,0.00,,,0.00,Wunderground v.1.15,2013-08-12 12:57:00,
2013-08-12 09:02:00,69.0,62.2,29.96,SE,145,4.0,4.0,79,0.00,,,0.00,Wunderground v.1.15,2013-08-12 13:02:00,
2013-08-12 09:08:00,69.4,62.2,29.96,SE,146,4.0,4.0,78,0.00,,,0.00,Wunderground v.1.15,2013-08-12 13:08:00,
2013-08-12 09:13:00,69.7,62.9,29.95,SE,145,3.0,3.0,79,0.00,,,0.00,Wunderground v.1.15,2013-08-12 13:13:00,
2013-08-12 09:23:00,69.8,62.3,29.95,SE,131,4.0,4.0,77,0.00,,,0.00,Wunderground v.1.15,2013-08-12 13:23:00,
2013-08-12 09:32:00,70.6,62.7,29.96,SE,145,2.0,5.0,76,0.00,,,0.00,Wunderground v.1.15,2013-08-12 13:32:00,
2013-08-12 09:38:00,70.8,62.5,29.95,SE,130,2.0,5.0,75,0.00,,,0.00,Wunderground v.1.15,2013-08-12 13:38:00,
2013-08-12 09:47:00,71.1,63.1,29.95,SE,144,3.0,5.0,76,0.00,,,0.00,Wunderground v.1.15,2013-08-12 13:47:00,
2013-08-12 09:57:00,71.8,63.8,29.95,SSE,153,1.0,2.0,76,0.00,,,0.00,Wunderground v.1.15,2013-08-12 13:57:00,
2013-08-12 10:07:00,72.6,64.2,29.95,East,88,1.0,1.0,75,0.00,,,0.00,Wunderground v.1.15,2013-08-12 14:07:00,
2013-08-12 10:12:00,72.7,63.1,29.95,East,86,2.0,2.0,72,0.00,,,0.00,Wunderground v.1.15,2013-08-12 14:12:00,
2013-08-12 10:17:00,73.0,62.6,29.95,East,88,2.0,2.0,70,0.00,,,0.00,Wunderground v.1.15,2013-08-12 14:17:00,
2013-08-12 10:27:00,74.6,62.5,29.95,SSE,156,2.0,4.0,66,0.00,,,0.00,Wunderground v.1.15,2013-08-12 14:27:00,
2013-08-12 10:38:00,75.0,62.0,29.94,South,174,2.0,2.0,64,0.00,,,0.00,Wunderground v.1.15,2013-08-12 14:38:00,
2013-08-12 10:43:00,75.4,61.5,29.94,South,181,3.0,4.0,62,0.00,,,0.00,Wunderground v.1.15,2013-08-12 14:43:00,
2013-08-12 10:53:00,75.3,60.9,29.94,SE,138,4.0,7.0,61,0.00,,,0.00,Wunderground v.1.15,2013-08-12 14:53:00,
2013-08-12 11:02:00,75.6,61.2,29.94,SSE,150,5.0,8.0,61,0.00,,,0.00,Wunderground v.1.15,2013-08-12 15:02:00,
2013-08-12 11:08:00,75.3,60.0,29.94,South,178,5.0,8.0,59,0.00,,,0.00,Wunderground v.1.15,2013-08-12 15:08:00,
2013-08-12 11:17:00,74.9,60.1,29.94,SE,131,6.0,10.0,60,0.00,,,0.00,Wunderground v.1.15,2013-08-12 15:17:00,
2013-08-12 11:22:00,75.0,60.6,29.93,SE,146,6.0,6.0,61,0.00,,,0.00,Wunderground v.1.15,2013-08-12 15:22:00,
2013-08-12 11:27:00,75.3,60.9,29.93,SE,136,4.0,7.0,61,0.00,,,0.00,Wunderground v.1.15,2013-08-12 15:27:00,
2013-08-12 11:37:00,75.5,61.1,29.93,SE,136,5.0,8.0,61,0.00,,,0.00,Wunderground v.1.15,2013-08-12 15:37:00,
2013-08-12 11:43:00,75.4,61.5,29.93,SE,131,4.0,4.0,62,0.00,,,0.00,Wunderground v.1.15,2013-08-12 15:43:00,
2013-08-12 11:48:00,76.0,63.4,29.92,SE,136,2.0,4.0,65,0.00,,,0.00,Wunderground v.1.15,2013-08-12 15:48:00,
2013-08-12 11:53:00,76.8,62.3,29.92,South,171,2.0,2.0,61,0.00,,,0.00,Wunderground v.1.15,2013-08-12 15:53:00,
2013-08-12 11:58:00,76.6,61.7,29.92,SE,125,5.0,5.0,60,0.00,,,0.00,Wunderground v.1.15,2013-08-12 15:58:00,
2013-08-12 12:03:00,76.5,62.0,29.92,ESE,116,5.0,5.0,61,0.00,,,0.00,Wunderground v.1.15,2013-08-12 16:03:00,
2013-08-12 12:08:00,76.4,62.0,29.92,SE,135,4.0,5.0,61,0.00,,,0.00,Wunderground v.1.15,2013-08-12 16:08:00,
2013-08-12 12:17:00,76.8,62.3,29.92,SSE,166,7.0,8.0,61,0.00,,,0.00,Wunderground v.1.15,2013-08-12 16:17:00,
2013-08-12 12:27:00,76.1,61.7,29.92,SSE,159,7.0,8.0,61,0.00,,,0.00,Wunderground v.1.15,2013-08-12 16:27:00,
2013-08-12 12:37:00,76.0,62.0,29.92,SSE,165,8.0,8.0,62,0.00,,,0.00,Wunderground v.1.15,2013-08-12 16:37:00,
2013-08-12 12:42:00,76.2,61.8,29.92,South,186,7.0,7.0,61,0.00,,,0.00,Wunderground v.1.15,2013-08-12 16:42:00,
2013-08-12 12:52:00,77.1,61.7,29.92,South,191,5.0,5.0,59,0.00,,,0.00,Wunderground v.1.15,2013-08-12 16:52:00,
2013-08-12 12:57:00,77.1,60.7,29.92,SSW,207,4.0,6.0,57,0.00,,,0.00,Wunderground v.1.15,2013-08-12 16:57:00,
2013-08-12 13:02:00,76.8,60.4,29.91,SSE,156,5.0,12.0,57,0.00,,,0.00,Wunderground v.1.15,2013-08-12 17:02:00,
2013-08-12 13:12:00,76.9,60.5,29.91,SSE,159,6.0,12.0,57,0.00,,,0.00,Wunderground v.1.15,2013-08-12 17:12:00,
2013-08-12 13:18:00,76.5,60.6,29.91,SSW,206,7.0,12.0,58,0.00,,,0.00,Wunderground v.1.15,2013-08-12 17:18:00,
2013-08-12 13:23:00,76.1,61.7,29.91,SSW,206,6.0,6.0,61,0.00,,,0.00,Wunderground v.1.15,2013-08-12 17:23:00,
2013-08-12 13:32:00,75.5,60.6,29.91,SSE,161,6.0,14.0,60,0.00,,,0.00,Wunderground v.1.15,2013-08-12 17:32:00,
2013-08-12 13:38:00,75.1,60.7,29.91,SE,145,8.0,14.0,61,0.00,,,0.00,Wunderground v.1.15,2013-08-12 17:38:00,
2013-08-12 13:47:00,74.5,61.1,29.91,South,179,9.0,9.0,63,0.00,,,0.00,Wunderground v.1.15,2013-08-12 17:47:00,
2013-08-12 13:57:00,73.9,59.6,29.91,SSW,199,7.0,12.0,61,0.00,,,0.00,Wunderground v.1.15,2013-08-12 17:57:00,
2013-08-12 14:02:00,73.7,60.3,29.91,SE,144,7.0,10.0,63,0.00,,,0.00,Wunderground v.1.15,2013-08-12 18:02:00,
2013-08-12 14:07:00,73.6,60.2,29.91,South,169,8.0,10.0,63,0.00,,,0.00,Wunderground v.1.15,2013-08-12 18:07:00,
2013-08-12 14:12:00,73.5,59.7,29.91,SSE,168,9.0,12.0,62,0.00,,,0.00,Wunderground v.1.15,2013-08-12 18:12:00,
2013-08-12 14:17:00,73.4,60.5,29.91,SSE,165,9.0,16.0,64,0.00,,,0.00,Wunderground v.1.15,2013-08-12 18:17:00,
2013-08-12 14:22:00,73.3,59.9,29.91,SSW,210,8.0,8.0,63,0.00,,,0.00,Wunderground v.1.15,2013-08-12 18:22:00,
2013-08-12 14:27:00,73.0,59.2,29.91,South,179,8.0,18.0,62,0.00,,,0.00,Wunderground v.1.15,2013-08-12 18:27:00,
2013-08-12 14:37:00,72.6,58.4,29.91,South,181,10.0,12.0,61,0.00,,,0.00,Wunderground v.1.15,2013-08-12 18:37:00,
2013-08-12 14:47:00,72.5,59.6,29.91,SSW,192,9.0,9.0,64,0.00,,,0.00,Wunderground v.1.15,2013-08-12 18:47:00,
2013-08-12 14:53:00,72.8,60.3,29.91,SSE,148,8.0,8.0,65,0.00,,,0.00,Wunderground v.1.15,2013-08-12 18:53:00,
2013-08-12 15:02:00,72.7,61.1,29.91,SSE,153,9.0,9.0,67,0.00,,,0.00,Wunderground v.1.15,2013-08-12 19:02:00,
2013-08-12 15:12:00,73.3,62.1,29.91,SE,138,7.0,9.0,68,0.00,,,0.00,Wunderground v.1.15,2013-08-12 19:12:00,
2013-08-12 15:22:00,72.7,61.5,29.90,SSE,148,8.0,8.0,68,0.00,,,0.00,Wunderground v.1.15,2013-08-12 19:22:00,
2013-08-12 15:32:00,72.8,61.6,29.90,SSE,157,8.0,9.0,68,0.00,,,0.00,Wunderground v.1.15,2013-08-12 19:32:00,
2013-08-12 15:38:00,72.4,61.2,29.90,SSE,150,9.0,9.0,68,0.00,,,0.00,Wunderground v.1.15,2013-08-12 19:38:00,
2013-08-12 15:47:00,72.1,61.4,29.90,SE,131,9.0,12.0,69,0.00,,,0.00,Wunderground v.1.15,2013-08-12 19:47:00,
2013-08-12 15:53:00,72.2,62.3,29.90,South,169,9.0,9.0,71,0.00,,,0.00,Wunderground v.1.15,2013-08-12 19:53:00,
2013-08-12 16:02:00,72.8,62.4,29.89,South,186,6.0,6.0,70,0.00,,,0.00,Wunderground v.1.15,2013-08-12 20:02:00,
2013-08-12 16:08:00,72.9,61.3,29.90,SSW,199,5.0,6.0,67,0.00,,,0.00,Wunderground v.1.15,2013-08-12 20:08:00,
2013-08-12 16:17:00,72.5,60.5,29.90,South,176,7.0,9.0,66,0.00,,,0.00,Wunderground v.1.15,2013-08-12 20:17:00,
2013-08-12 16:22:00,72.1,61.4,29.90,South,173,8.0,8.0,69,0.00,,,0.00,Wunderground v.1.15,2013-08-12 20:22:00,
2013-08-12 16:32:00,71.0,61.1,29.90,SSE,167,11.0,18.0,71,0.00,,,0.00,Wunderground v.1.15,2013-08-12 20:32:00,
2013-08-12 16:38:00,70.6,60.7,29.90,SE,144,11.0,18.0,71,0.00,,,0.00,Wunderground v.1.15,2013-08-12 20:38:00,
2013-08-12 16:47:00,70.7,62.4,29.90,SSE,150,9.0,11.0,75,0.00,,,0.00,Wunderground v.1.15,2013-08-12 20:47:00,
2013-08-12 16:52:00,71.1,62.0,29.89,SSE,163,7.0,7.0,73,0.00,,,0.00,Wunderground v.1.15,2013-08-12 20:52:00,
2013-08-12 16:57:00,71.1,62.4,29.89,SSE,156,7.0,7.0,74,0.00,,,0.00,Wunderground v.1.15,2013-08-12 20:57:00,
2013-08-12 17:03:00,71.2,62.1,29.90,SSE,156,7.0,7.0,73,0.00,,,0.00,Wunderground v.1.15,2013-08-12 21:03:00,
2013-08-12 17:08:00,71.8,63.1,29.90,SSE,148,6.0,7.0,74,0.00,,,0.00,Wunderground v.1.15,2013-08-12 21:08:00,
2013-08-12 17:13:00,72.1,62.6,29.89,SSW,195,5.0,5.0,72,0.00,,,0.00,Wunderground v.1.15,2013-08-12 21:13:00,
2013-08-12 17:23:00,72.2,61.9,29.90,SSE,161,7.0,7.0,70,0.00,,,0.00,Wunderground v.1.15,2013-08-12 21:23:00,
2013-08-12 17:32:00,71.7,62.2,29.89,SSW,199,8.0,8.0,72,0.00,,,0.00,Wunderground v.1.15,2013-08-12 21:32:00,
2013-08-12 17:37:00,71.7,62.6,29.90,SE,141,7.0,8.0,73,0.00,,,0.00,Wunderground v.1.15,2013-08-12 21:37:00,
2013-08-12 17:47:00,71.2,62.1,29.89,SSE,156,7.0,11.0,73,0.00,,,0.00,Wunderground v.1.15,2013-08-12 21:47:00,
2013-08-12 17:52:00,71.0,61.9,29.89,SSE,164,7.0,7.0,73,0.00,,,0.00,Wunderground v.1.15,2013-08-12 21:52:00,
2013-08-12 17:57:00,70.9,62.2,29.89,South,170,6.0,8.0,74,0.00,,,0.00,Wunderground v.1.15,2013-08-12 21:57:00,
2013-08-12 18:08:00,71.1,62.4,29.89,South,176,5.0,7.0,74,0.00,,,0.00,Wunderground v.1.15,2013-08-12 22:08:00,
2013-08-12 18:17:00,71.3,62.2,29.90,South,188,4.0,5.0,73,0.00,,,0.00,Wunderground v.1.15,2013-08-12 22:17:00,
2013-08-12 18:27:00,70.9,61.4,29.90,South,190,3.0,6.0,72,0.00,,,0.00,Wunderground v.1.15,2013-08-12 22:27:00,
2013-08-12 18:37:00,69.8,61.9,29.90,SSW,195,4.0,4.0,76,0.00,,,0.00,Wunderground v.1.15,2013-08-12 22:37:00,
2013-08-12 18:42:00,69.4,61.5,29.90,South,178,3.0,3.0,76,0.00,,,0.00,Wunderground v.1.15,2013-08-12 22:42:00,
2013-08-12 18:53:00,68.7,61.2,29.90,SSE,164,3.0,3.0,77,0.00,,,0.00,Wunderground v.1.15,2013-08-12 22:53:00,
2013-08-12 19:03:00,68.0,60.9,29.90,SSE,161,2.0,2.0,78,0.00,,,0.00,Wunderground v.1.15,2013-08-12 23:03:00,
2013-08-12 19:13:00,67.2,60.8,29.89,SSE,159,3.0,4.0,80,0.00,,,0.00,Wunderground v.1.15,2013-08-12 23:13:00,
2013-08-12 19:23:00,66.5,60.8,29.89,South,171,2.0,2.0,82,0.00,,,0.00,Wunderground v.1.15,2013-08-12 23:23:00,
2013-08-12 19:32:00,66.0,60.7,29.89,SSW,202,2.0,2.0,83,0.00,,,0.00,Wunderground v.1.15,2013-08-12 23:32:00,
2013-08-12 19:42:00,65.7,60.7,29.90,South,176,2.0,2.0,84,0.00,,,0.00,Wunderground v.1.15,2013-08-12 23:42:00,
2013-08-12 19:52:00,65.7,60.4,29.90,SSW,196,2.0,3.0,83,0.00,,,0.00,Wunderground v.1.15,2013-08-12 23:52:00,
2013-08-12 19:57:00,65.8,60.2,29.90,SSW,212,2.0,5.0,82,0.00,,,0.00,Wunderground v.1.15,2013-08-12 23:57:00,
2013-08-12 20:02:00,65.9,59.9,29.90,South,176,3.0,3.0,81,0.00,,,0.00,Wunderground v.1.15,2013-08-13 00:02:00,
2013-08-12 20:07:00,66.1,60.4,29.89,SSW,194,3.0,5.0,82,0.00,,,0.00,Wunderground v.1.15,2013-08-13 00:07:00,
2013-08-12 20:13:00,66.1,60.4,29.90,SSW,207,3.0,3.0,82,0.00,,,0.00,Wunderground v.1.15,2013-08-13 00:13:00,
2013-08-12 20:18:00,66.1,60.8,29.89,South,184,3.0,3.0,83,0.00,,,0.00,Wunderground v.1.15,2013-08-13 00:18:00,
2013-08-12 20:23:00,65.9,60.9,29.89,SSW,194,3.0,3.0,84,0.00,,,0.00,Wunderground v.1.15,2013-08-13 00:23:00,
2013-08-12 20:28:00,65.7,60.7,29.90,SW,230,2.0,4.0,84,0.00,,,0.00,Wunderground v.1.15,2013-08-13 00:28:00,
2013-08-12 20:33:00,65.6,61.0,29.90,South,183,2.0,2.0,85,0.00,,,0.00,Wunderground v.1.15,2013-08-13 00:33:00,
2013-08-12 20:38:00,65.6,61.0,29.90,SSW,202,3.0,3.0,85,0.00,,,0.00,Wunderground v.1.15,2013-08-13 00:38:00,
2013-08-12 20:47:00,65.6,61.3,29.90,South,171,3.0,5.0,86,0.00,,,0.00,Wunderground v.1.15,2013-08-13 00:47:00,
2013-08-12 20:52:00,65.6,61.3,29.90,South,180,2.0,4.0,86,0.00,,,0.00,Wunderground v.1.15,2013-08-13 00:52:00,
2013-08-12 20:57:00,65.4,61.1,29.90,SSE,164,2.0,5.0,86,0.00,,,0.00,Wunderground v.1.15,2013-08-13 00:57:00,
2013-08-12 21:02:00,65.3,61.3,29.90,SSE,165,2.0,4.0,87,0.00,,,0.00,Wunderground v.1.15,2013-08-13 01:02:00,
2013-08-12 21:12:00,65.1,61.1,29.90,SSW,195,2.0,2.0,87,0.00,,,0.00,Wunderground v.1.15,2013-08-13 01:12:00,
2013-08-12 21:22:00,65.1,61.5,29.90,SSW,203,1.0,1.0,88,0.00,,,0.00,Wunderground v.1.15,2013-08-13 01:22:00,
2013-08-12 21:27:00,65.0,61.4,29.90,SSW,205,2.0,2.0,88,0.00,,,0.00,Wunderground v.1.15,2013-08-13 01:27:00,
2013-08-12 21:33:00,65.0,61.4,29.90,SSW,205,2.0,2.0,88,0.00,,,0.00,Wunderground v.1.15,2013-08-13 01:33:00,
2013-08-12 21:38:00,64.9,61.3,29.90,SSW,200,1.0,2.0,88,0.00,,,0.00,Wunderground v.1.15,2013-08-13 01:38:00,
2013-08-12 21:48:00,64.7,61.1,29.90,South,169,1.0,1.0,88,0.00,,,0.00,Wunderground v.1.15,2013-08-13 01:48:00,
2013-08-12 21:53:00,64.6,61.0,29.89,South,189,0.0,0.0,88,0.00,,,0.00,Wunderground v.1.15,2013-08-13 01:53:00,
2013-08-12 22:02:00,64.3,60.7,29.90,South,190,0.0,0.0,88,0.00,,,0.00,Wunderground v.1.15,2013-08-13 02:02:00,
2013-08-12 22:07:00,64.2,60.6,29.90,South,171,0.0,0.0,88,0.00,,,0.00,Wunderground v.1.15,2013-08-13 02:07:00,
2013-08-12 22:12:00,64.1,60.5,29.90,SSW,213,0.0,0.0,88,0.00,,,0.00,Wunderground v.1.15,2013-08-13 02:12:00,
2013-08-12 22:22:00,63.9,60.3,29.90,SSW,192,0.0,0.0,88,0.00,,,0.00,Wunderground v.1.15,2013-08-13 02:22:00,
2013-08-12 22:27:00,63.8,60.2,29.90,SSW,192,0.0,0.0,88,0.00,,,0.00,Wunderground v.1.15,2013-08-13 02:27:00,
2013-08-12 22:37:00,63.5,60.2,29.90,SW,227,0.0,0.0,89,0.00,,,0.00,Wunderground v.1.15,2013-08-13 02:37:00,
2013-08-12 22:42:00,63.2,59.9,29.90,SW,227,0.0,0.0,89,0.00,,,0.00,Wunderground v.1.15,2013-08-13 02:42:00,
2013-08-12 22:48:00,63.0,59.4,29.90,SW,227,0.0,0.0,88,0.00,,,0.00,Wunderground v.1.15,2013-08-13 02:48:00,
2013-08-12 22:53:00,62.7,59.1,29.90,SW,227,0.0,0.0,88,0.00,,,0.00,Wunderground v.1.15,2013-08-13 02:53:00,
2013-08-12 23:03:00,62.3,58.4,29.90,SW,227,0.0,0.0,87,0.00,,,0.00,Wunderground v.1.15,2013-08-13 03:03:00,
2013-08-12 23:08:00,62.3,58.1,29.90,SW,227,0.0,0.0,86,0.00,,,0.00,Wunderground v.1.15,2013-08-13 03:08:00,
2013-08-12 23:13:00,62.3,58.4,29.90,SW,227,0.0,0.0,87,0.00,,,0.00,Wunderground v.1.15,2013-08-13 03:13:00,
2013-08-12 23:22:00,61.9,58.0,29.90,SW,227,0.0,0.0,87,0.00,,,0.00,Wunderground v.1.15,2013-08-13 03:22:00,
2013-08-12 23:32:00,62.2,58.3,29.90,SSW,195,0.0,0.0,87,0.00,,,0.00,Wunderground v.1.15,2013-08-13 03:32:00,
2013-08-12 23:38:00,62.3,58.7,29.90,SSW,195,0.0,0.0,88,0.00,,,0.00,Wunderground v.1.15,2013-08-13 03:38:00,
2013-08-12 23:47:00,61.8,57.9,29.90,NW,311,0.0,1.0,87,0.00,,,0.00,Wunderground v.1.15,2013-08-13 03:47:00,
2013-08-12 23:53:00,61.6,57.4,29.90,West,269,1.0,1.0,86,0.00,,,0.00,Wunderground v.1.15,2013-08-13 03:53:00,